Time;durP1;ratioP1;P1;durP2;ratioP2;P2;SDS_P1;SDS_P2;PMS_P1;PMS_P2;Temp;Humidity;BMP_temperature;BMP_pressure;BME280_temperature;BME280_humidity;BME280_pressure;Samples;Min_cycle;Max_cycle;Signal;HPM_P1;HPM_P2
2023/03/01 00:02:02;;;;;;;;;24.75;21.00;;;;;;;;5070308;28;45382;-81
2023/03/01 00:04:27;;;;;;;;;30.50;20.00;;;;;;;;5065923;28;45454;-80
2023/03/01 00:06:52;;;;;;;;;23.00;21.50;;;;;;;;5071365;28;45507;-80
2023/03/01 00:09:18;;;;;;;;;22.25;20.75;;;;;;;;5078236;28;45961;-79
2023/03/01 00:11:43;;;;;;;;;24.00;19.75;;;;;;;;5081647;27;45583;-80
2023/03/01 00:14:09;;;;;;;;;25.00;20.75;;;;;;;;5085875;28;47875;-80
2023/03/01 00:16:35;;;;;;;;;21.25;20.00;;;;;;;;5068825;28;45298;-80
2023/03/01 00:19:01;;;;;;;;;28.75;23.00;;;;;;;;5069227;28;45587;-79
2023/03/01 00:21:27;;;;;;;;;23.50;19.00;;;;;;;;5068322;28;45756;-81
2023/03/01 00:23:53;;;;;;;;;24.50;22.75;;;;;;;;5068870;28;45584;-79
2023/03/01 00:26:19;;;;;;;;;35.50;25.00;;;;;;;;5071635;28;44799;-80
2023/03/01 00:28:45;;;;;;;;;23.75;22.00;;;;;;;;5072076;28;45273;-80
2023/03/01 00:31:14;;;;;;;;;26.25;24.50;;;;;;;;5074716;28;45349;-82
2023/03/01 00:33:40;;;;;;;;;26.50;21.25;;;;;;;;5075569;28;45688;-83
2023/03/01 00:36:06;;;;;;;;;29.50;27.75;;;;;;;;5075950;28;44806;-80
2023/03/01 00:38:34;;;;;;;;;18.00;15.00;;;;;;;;5077618;28;44810;-80
2023/03/01 00:41:06;;;;;;;;;26.25;22.00;;;;;;;;5079186;28;45425;-80
2023/03/01 00:43:36;;;;;;;;;19.75;15.25;;;;;;;;5078046;28;47038;-80
2023/03/01 00:46:02;;;;;;;;;16.00;14.50;;;;;;;;5079056;28;44730;-82
2023/03/01 00:48:27;;;;;;;;;27.00;22.75;;;;;;;;5079275;28;44707;-82
2023/03/01 00:50:52;;;;;;;;;25.25;20.50;;;;;;;;5076978;28;46792;-81
2023/03/01 00:53:18;;;;;;;;;30.75;20.00;;;;;;;;5077439;27;48679;-80
2023/03/01 00:55:43;;;;;;;;;25.25;19.75;;;;;;;;5079217;28;44778;-80
2023/03/01 00:58:08;;;;;;;;;19.50;15.00;;;;;;;;5077415;28;45239;-79
2023/03/01 01:00:34;;;;;;;;;23.50;22.50;;;;;;;;5075833;28;45173;-80
2023/03/01 01:02:59;;;;;;;;;25.25;24.25;;;;;;;;5072603;28;46979;-79
2023/03/01 01:05:24;;;;;;;;;23.00;18.50;;;;;;;;5075890;28;45445;-77
2023/03/01 01:07:49;;;;;;;;;22.50;18.00;;;;;;;;5074791;28;45244;-79
2023/03/01 01:10:16;;;;;;;;;19.75;18.50;;;;;;;;5078015;27;47099;-82
2023/03/01 01:12:42;;;;;;;;;23.00;19.75;;;;;;;;5079265;28;45160;-80
2023/03/01 01:15:08;;;;;;;;;30.50;26.00;;;;;;;;5080156;27;44731;-80
2023/03/01 01:17:33;;;;;;;;;22.50;19.75;;;;;;;;5083127;27;44778;-80
2023/03/01 01:19:59;;;;;;;;;20.25;19.75;;;;;;;;5082666;27;46428;-80
2023/03/01 01:22:24;;;;;;;;;27.75;24.50;;;;;;;;5082329;28;44989;-82
2023/03/01 01:24:49;;;;;;;;;22.75;19.25;;;;;;;;5083200;28;44676;-80
2023/03/01 01:27:15;;;;;;;;;25.00;22.50;;;;;;;;5079158;28;44754;-78
2023/03/01 01:29:41;;;;;;;;;26.25;22.00;;;;;;;;5078571;28;44832;-77
2023/03/01 01:32:06;;;;;;;;;20.50;19.00;;;;;;;;5078311;28;45106;-78
2023/03/01 01:34:32;;;;;;;;;22.50;20.75;;;;;;;;5065257;28;45142;-78
2023/03/01 01:37:02;;;;;;;;;17.50;17.50;;;;;;;;5069991;28;45384;-78
2023/03/01 01:39:27;;;;;;;;;28.00;25.00;;;;;;;;5078032;28;44770;-79
2023/03/01 01:41:52;;;;;;;;;24.50;20.25;;;;;;;;5078493;28;45058;-77
2023/03/01 01:44:18;;;;;;;;;25.25;22.50;;;;;;;;5065438;28;45335;-80
2023/03/01 01:46:43;;;;;;;;;24.25;18.00;;;;;;;;5075760;28;44825;-78
2023/03/01 01:49:17;;;;;;;;;23.75;18.50;;;;;;;;5072168;28;45306;-76
2023/03/01 01:51:44;;;;;;;;;19.00;16.25;;;;;;;;5071723;28;45251;-76
2023/03/01 01:54:13;;;;;;;;;26.00;22.25;;;;;;;;5071059;28;45831;-75
2023/03/01 01:56:40;;;;;;;;;25.75;21.00;;;;;;;;5066467;28;45502;-76
2023/03/01 01:59:06;;;;;;;;;25.75;21.25;;;;;;;;5070655;28;44748;-76
2023/03/01 02:01:31;;;;;;;;;24.25;22.00;;;;;;;;5071831;28;45822;-77
2023/03/01 02:03:57;;;;;;;;;29.75;24.00;;;;;;;;5074027;28;45676;-77
2023/03/01 02:06:28;;;;;;;;;25.25;22.00;;;;;;;;5073244;28;45510;-75
2023/03/01 02:08:55;;;;;;;;;19.25;19.25;;;;;;;;5060038;28;45476;-77
2023/03/01 02:11:20;;;;;;;;;24.25;22.00;;;;;;;;5076545;28;45454;-81
2023/03/01 02:13:47;;;;;;;;;20.75;20.00;;;;;;;;5078743;28;44755;-78
2023/03/01 02:16:14;;;;;;;;;23.00;22.75;;;;;;;;5075813;28;44791;-79
2023/03/01 02:18:40;;;;;;;;;35.25;23.25;;;;;;;;5078064;28;45196;-79
2023/03/01 02:21:14;;;;;;;;;20.00;18.75;;;;;;;;5079612;28;45240;-79
2023/03/01 02:23:40;;;;;;;;;24.00;19.25;;;;;;;;5079284;28;45318;-80
2023/03/01 02:26:12;;;;;;;;;27.25;22.00;;;;;;;;5079221;28;45335;-80
2023/03/01 02:28:38;;;;;;;;;25.25;22.00;;;;;;;;5086657;28;45753;-78
2023/03/01 02:33:52;;;;;;;;;29.00;20.25;;;;;;;;5065944;28;45401;-79
2023/03/01 02:36:30;;;;;;;;;24.50;21.50;;;;;;;;5074610;28;45390;-78
2023/03/01 02:38:57;;;;;;;;;31.50;26.25;;;;;;;;5072121;28;45993;-79
2023/03/01 02:41:24;;;;;;;;;23.75;19.50;;;;;;;;5078268;28;45680;-78
2023/03/01 02:43:50;;;;;;;;;26.25;24.25;;;;;;;;5077596;28;45427;-79
2023/03/01 02:46:20;;;;;;;;;34.75;26.00;;;;;;;;5071536;28;44926;-80
2023/03/01 02:49:07;;;;;;;;;28.25;24.50;;;;;;;;5068179;28;45459;-78
2023/03/01 02:52:04;;;;;;;;;27.25;21.75;;;;;;;;5074860;28;45596;-78
2023/03/01 02:54:46;;;;;;;;;26.75;23.50;;;;;;;;5048851;28;44812;-76
2023/03/01 02:57:12;;;;;;;;;27.00;23.75;;;;;;;;5068493;28;44771;-78
2023/03/01 02:59:42;;;;;;;;;23.00;19.00;;;;;;;;5076497;28;45434;-79
2023/03/01 03:02:19;;;;;;;;;24.25;22.75;;;;;;;;5076351;28;45152;-78
2023/03/01 03:04:45;;;;;;;;;25.75;20.75;;;;;;;;5076328;28;45516;-79
2023/03/01 03:07:10;;;;;;;;;21.00;18.50;;;;;;;;5076313;28;44818;-79
2023/03/01 03:09:35;;;;;;;;;16.75;14.75;;;;;;;;5077517;28;47324;-77
2023/03/01 03:12:01;;;;;;;;;28.75;22.00;;;;;;;;5075219;28;46080;-78
2023/03/01 03:14:26;;;;;;;;;29.25;24.00;;;;;;;;5075095;28;45546;-76
2023/03/01 03:16:51;;;;;;;;;28.50;22.50;;;;;;;;5076213;28;45175;-77
2023/03/01 03:19:17;;;;;;;;;20.75;18.50;;;;;;;;5075185;28;45348;-78
2023/03/01 03:21:43;;;;;;;;;29.75;21.25;;;;;;;;5075163;27;47337;-80
2023/03/01 03:24:08;;;;;;;;;21.25;13.50;;;;;;;;5074865;28;45298;-79
2023/03/01 03:26:33;;;;;;;;;23.50;22.00;;;;;;;;5071412;28;45408;-77
2023/03/01 03:28:59;;;;;;;;;32.50;26.75;;;;;;;;5072344;28;45270;-77
2023/03/01 03:31:24;;;;;;;;;28.25;20.75;;;;;;;;5074743;28;45087;-79
2023/03/01 03:33:49;;;;;;;;;24.00;21.50;;;;;;;;5074255;28;45378;-77
2023/03/01 03:36:17;;;;;;;;;26.00;22.75;;;;;;;;5075220;28;45297;-80
2023/03/01 03:38:42;;;;;;;;;21.50;19.50;;;;;;;;5074580;28;44834;-78
2023/03/01 03:41:08;;;;;;;;;22.75;22.75;;;;;;;;5073310;28;47673;-77
2023/03/01 03:43:34;;;;;;;;;28.00;26.25;;;;;;;;5073975;28;45461;-77
2023/03/01 03:46:00;;;;;;;;;37.00;29.50;;;;;;;;5074820;28;45076;-78
2023/03/01 03:48:26;;;;;;;;;29.00;19.00;;;;;;;;5072523;28;46584;-78
2023/03/01 03:50:52;;;;;;;;;23.50;21.00;;;;;;;;5072146;28;45365;-77
2023/03/01 03:53:19;;;;;;;;;21.00;19.25;;;;;;;;5072901;28;45400;-77
2023/03/01 03:55:44;;;;;;;;;27.25;23.75;;;;;;;;5074415;28;45390;-77
2023/03/01 03:58:10;;;;;;;;;23.75;19.00;;;;;;;;5073502;28;45906;-79
2023/03/01 04:00:36;;;;;;;;;17.50;14.00;;;;;;;;5076646;28;45428;-78
2023/03/01 04:03:02;;;;;;;;;30.00;23.00;;;;;;;;5075872;28;44744;-77
2023/03/01 04:05:27;;;;;;;;;26.00;20.50;;;;;;;;5074010;28;45369;-78
2023/03/01 04:08:00;;;;;;;;;26.50;23.25;;;;;;;;5074846;28;45189;-78
2023/03/01 04:10:26;;;;;;;;;23.50;23.50;;;;;;;;5073176;28;47524;-76
2023/03/01 04:12:52;;;;;;;;;20.00;18.75;;;;;;;;5073532;28;45482;-78
2023/03/01 04:15:17;;;;;;;;;23.00;22.00;;;;;;;;5072924;28;45330;-79
2023/03/01 04:17:44;;;;;;;;;24.50;21.75;;;;;;;;5073830;28;45360;-79
2023/03/01 04:20:13;;;;;;;;;24.50;22.50;;;;;;;;5076893;28;45344;-77
2023/03/01 04:22:39;;;;;;;;;26.75;23.50;;;;;;;;5077504;28;45279;-79
2023/03/01 04:25:06;;;;;;;;;35.00;30.25;;;;;;;;5077674;28;44700;-80
2023/03/01 04:27:34;;;;;;;;;31.00;25.00;;;;;;;;5077230;28;44790;-78
2023/03/01 04:29:59;;;;;;;;;58.00;43.50;;;;;;;;5077552;28;45552;-79
2023/03/01 04:32:25;;;;;;;;;27.25;24.50;;;;;;;;5075863;28;45574;-78
2023/03/01 04:34:50;;;;;;;;;31.50;30.00;;;;;;;;5075578;28;44791;-79
2023/03/01 04:37:16;;;;;;;;;33.75;31.50;;;;;;;;5076600;28;45384;-79
2023/03/01 04:39:47;;;;;;;;;24.00;22.25;;;;;;;;5075285;28;46083;-78
2023/03/01 04:42:12;;;;;;;;;26.75;25.25;;;;;;;;5075627;28;45038;-79
2023/03/01 04:44:37;;;;;;;;;30.75;28.25;;;;;;;;5077284;28;44761;-79
2023/03/01 04:47:03;;;;;;;;;32.50;31.00;;;;;;;;5074739;28;44832;-79
2023/03/01 04:49:28;;;;;;;;;24.25;22.00;;;;;;;;5075878;28;45230;-78
2023/03/01 04:51:53;;;;;;;;;33.00;24.50;;;;;;;;5076917;28;44901;-78
2023/03/01 04:54:18;;;;;;;;;32.25;29.00;;;;;;;;5074962;28;44819;-79
2023/03/01 04:56:57;;;;;;;;;30.50;27.75;;;;;;;;5082031;27;45202;-84
2023/03/01 04:59:52;;;;;;;;;37.00;30.00;;;;;;;;5080324;27;45273;-86
2023/03/01 05:02:35;;;;;;;;;28.25;28.00;;;;;;;;5079900;28;45317;-84
2023/03/01 05:05:00;;;;;;;;;32.50;26.75;;;;;;;;5078209;28;45421;-78
2023/03/01 05:08:05;;;;;;;;;29.25;25.25;;;;;;;;5070920;28;45481;-85
2023/03/01 05:11:02;;;;;;;;;;;;;;;;;;;;;
2023/03/01 05:24:01;;;;;;;;;35.00;29.75;;;;;;;;4909117;28;44867;-85
2023/03/01 05:26:42;;;;;;;;;47.50;35.25;;;;;;;;4915256;29;44814;-86
2023/03/01 05:29:39;;;;;;;;;40.50;35.50;;;;;;;;4919214;28;44764;-84
2023/03/01 05:32:31;;;;;;;;;39.00;33.75;;;;;;;;4997197;28;45266;-87
2023/03/01 05:35:02;;;;;;;;;39.00;30.50;;;;;;;;4997722;28;45421;-83
2023/03/01 05:37:47;;;;;;;;;31.00;23.75;;;;;;;;5031152;28;45506;-84
2023/03/01 05:40:20;;;;;;;;;38.50;33.50;;;;;;;;5095023;28;45412;-82
2023/03/01 05:42:48;;;;;;;;;39.50;32.75;;;;;;;;5077467;28;46280;-83
2023/03/01 05:45:15;;;;;;;;;42.50;29.75;;;;;;;;5068170;28;47139;-81
2023/03/01 05:47:45;;;;;;;;;29.50;27.00;;;;;;;;5075307;28;45345;-83
2023/03/01 05:54:14;;;;;;;;;;;;;;;;;;;;;
2023/03/01 06:09:18;;;;;;;;;44.25;33.75;;;;;;;;5017649;28;45614;-77
2023/03/01 06:11:43;;;;;;;;;34.00;32.00;;;;;;;;5018676;28;44805;-77
2023/03/01 06:14:10;;;;;;;;;39.50;31.25;;;;;;;;4999569;28;45588;-79
2023/03/01 06:16:35;;;;;;;;;33.50;29.25;;;;;;;;5015586;28;44775;-75
2023/03/01 06:19:00;;;;;;;;;39.00;36.75;;;;;;;;5018830;28;46445;-76
2023/03/01 06:21:26;;;;;;;;;50.25;41.50;;;;;;;;5064288;27;45547;-75
2023/03/01 06:23:51;;;;;;;;;37.75;29.50;;;;;;;;5085114;27;44847;-76
2023/03/01 06:26:17;;;;;;;;;37.50;32.00;;;;;;;;5090338;28;45525;-76
2023/03/01 06:28:45;;;;;;;;;41.00;34.50;;;;;;;;5092828;28;45465;-79
2023/03/01 06:31:14;;;;;;;;;39.00;25.25;;;;;;;;5073980;28;44777;-80
2023/03/01 06:33:39;;;;;;;;;48.25;38.25;;;;;;;;5076581;28;45722;-80
2023/03/01 06:36:05;;;;;;;;;40.50;33.25;;;;;;;;5079747;27;45762;-80
2023/03/01 06:38:30;;;;;;;;;52.00;39.50;;;;;;;;5084159;28;46803;-80
2023/03/01 06:40:56;;;;;;;;;40.00;36.25;;;;;;;;5096472;27;45450;-79
2023/03/01 06:43:22;;;;;;;;;47.00;39.00;;;;;;;;5074539;28;45003;-80
2023/03/01 06:45:47;;;;;;;;;40.75;35.25;;;;;;;;5072002;28;45856;-81
2023/03/01 06:48:12;;;;;;;;;48.00;38.00;;;;;;;;5093708;28;45677;-80
2023/03/01 06:50:38;;;;;;;;;43.50;38.50;;;;;;;;5079827;28;44880;-83
2023/03/01 06:53:06;;;;;;;;;48.75;36.50;;;;;;;;5088887;27;45280;-83
2023/03/01 06:55:32;;;;;;;;;51.75;39.00;;;;;;;;5070977;28;46377;-81
2023/03/01 06:58:00;;;;;;;;;49.50;40.00;;;;;;;;5100233;27;45201;-81
2023/03/01 07:00:26;;;;;;;;;53.75;41.00;;;;;;;;5095919;27;45207;-82
2023/03/01 07:02:55;;;;;;;;;41.50;35.00;;;;;;;;5091112;28;45517;-84
2023/03/01 07:05:20;;;;;;;;;41.50;37.25;;;;;;;;5075443;28;45835;-82
2023/03/01 07:07:56;;;;;;;;;52.25;38.75;;;;;;;;5070807;28;46967;-85
2023/03/01 07:10:29;;;;;;;;;25.50;20.50;;;;;;;;5078146;27;44739;-82
2023/03/01 07:13:01;;;;;;;;;53.00;41.00;;;;;;;;5079876;27;44829;-84
2023/03/01 07:15:34;;;;;;;;;46.00;38.75;;;;;;;;5077759;28;45137;-83
2023/03/01 07:18:01;;;;;;;;;42.00;39.00;;;;;;;;5073639;28;45587;-84
2023/03/01 07:20:40;;;;;;;;;56.75;41.00;;;;;;;;5078079;28;45494;-83
2023/03/01 07:23:07;;;;;;;;;43.75;36.00;;;;;;;;5078254;28;44818;-85
2023/03/01 07:25:33;;;;;;;;;52.00;41.75;;;;;;;;5076547;27;45871;-82
2023/03/01 07:28:00;;;;;;;;;50.50;39.50;;;;;;;;5075467;28;45718;-83
2023/03/01 07:30:28;;;;;;;;;54.00;41.75;;;;;;;;5076628;28;46028;-83
2023/03/01 07:32:53;;;;;;;;;48.50;40.50;;;;;;;;5077308;28;45484;-85
2023/03/01 07:35:19;;;;;;;;;40.00;35.00;;;;;;;;5078798;27;46068;-81
2023/03/01 07:37:45;;;;;;;;;47.50;39.75;;;;;;;;5079303;27;45394;-82
2023/03/01 07:40:13;;;;;;;;;49.75;36.25;;;;;;;;5078851;28;44792;-82
2023/03/01 07:42:42;;;;;;;;;44.75;35.25;;;;;;;;5082218;27;44798;-82
2023/03/01 07:45:47;;;;;;;;;54.25;40.75;;;;;;;;5077455;28;44833;-82
2023/03/01 07:48:18;;;;;;;;;44.75;38.25;;;;;;;;5077102;28;45451;-82
2023/03/01 07:50:43;;;;;;;;;37.25;33.00;;;;;;;;5079005;28;44728;-81
2023/03/01 07:53:09;;;;;;;;;33.00;29.00;;;;;;;;5079032;27;44890;-82
2023/03/01 07:55:35;;;;;;;;;41.25;35.75;;;;;;;;5094497;28;45972;-81
2023/03/01 07:58:04;;;;;;;;;42.75;37.25;;;;;;;;5077908;27;45836;-82
2023/03/01 08:00:48;;;;;;;;;39.00;31.00;;;;;;;;5078254;28;45440;-85
2023/03/01 08:03:23;;;;;;;;;48.00;35.50;;;;;;;;5074394;27;45063;-80
2023/03/01 08:05:48;;;;;;;;;41.25;35.00;;;;;;;;5077862;28;45848;-83
2023/03/01 08:08:17;;;;;;;;;47.00;40.50;;;;;;;;5079472;27;45260;-83
2023/03/01 08:10:42;;;;;;;;;44.75;38.75;;;;;;;;5075939;27;44810;-83
2023/03/01 08:13:07;;;;;;;;;45.50;39.00;;;;;;;;5077014;27;45404;-83
2023/03/01 08:15:33;;;;;;;;;50.00;38.75;;;;;;;;5076991;28;45408;-81
2023/03/01 08:17:58;;;;;;;;;35.50;33.25;;;;;;;;5080028;27;45400;-81
2023/03/01 08:20:24;;;;;;;;;55.25;42.75;;;;;;;;5080234;27;45683;-79
2023/03/01 08:23:21;;;;;;;;;36.00;31.75;;;;;;;;5078818;28;44850;-82
2023/03/01 08:26:06;;;;;;;;;52.25;40.25;;;;;;;;5071556;28;44851;-81
2023/03/01 08:28:31;;;;;;;;;44.75;37.75;;;;;;;;5074990;27;45441;-80
2023/03/01 08:30:57;;;;;;;;;45.25;39.00;;;;;;;;5072786;28;45768;-79
2023/03/01 08:33:25;;;;;;;;;44.00;38.00;;;;;;;;5076572;28;45333;-79
2023/03/01 08:36:08;;;;;;;;;45.50;38.50;;;;;;;;5076741;28;45297;-82
2023/03/01 08:38:34;;;;;;;;;51.75;36.75;;;;;;;;5076273;28;45250;-81
2023/03/01 08:41:27;;;;;;;;;54.00;40.00;;;;;;;;5077808;28;45179;-83
2023/03/01 08:47:21;;;;;;;;;50.50;38.50;;;;;;;;5038224;28;44785;-89
2023/03/01 08:49:55;;;;;;;;;51.00;39.00;;;;;;;;5024528;28;45136;-84
2023/03/01 08:52:24;;;;;;;;;37.25;31.75;;;;;;;;5062210;28;44690;-86
2023/03/01 08:54:56;;;;;;;;;43.25;35.75;;;;;;;;5080616;28;45337;-82
2023/03/01 08:57:27;;;;;;;;;50.25;40.25;;;;;;;;5070946;28;46104;-83
2023/03/01 08:59:55;;;;;;;;;44.00;38.25;;;;;;;;5059538;28;45892;-83
2023/03/01 09:02:22;;;;;;;;;42.75;37.50;;;;;;;;5073306;28;44767;-84
2023/03/01 09:07:59;;;;;;;;;40.75;35.00;;;;;;;;5058747;28;45497;-83
2023/03/01 09:10:27;;;;;;;;;47.75;38.50;;;;;;;;5076770;28;46852;-82
2023/03/01 09:12:53;;;;;;;;;37.75;33.75;;;;;;;;5080126;28;44873;-86
2023/03/01 09:15:40;;;;;;;;;41.00;36.75;;;;;;;;5079806;27;44697;-86
2023/03/01 09:18:23;;;;;;;;;;;;;;;;;;;;;
2023/03/01 09:20:49;;;;;;;;;38.25;35.00;;;;;;;;5073476;28;74571;-82
2023/03/01 09:23:20;;;;;;;;;49.00;38.00;;;;;;;;5075245;28;45058;-82
2023/03/01 09:25:45;;;;;;;;;44.00;34.00;;;;;;;;5078049;28;44728;-85
2023/03/01 09:28:11;;;;;;;;;46.75;35.00;;;;;;;;5078450;27;45763;-85
2023/03/01 09:30:42;;;;;;;;;43.75;35.00;;;;;;;;5077157;28;47029;-83
2023/03/01 09:33:24;;;;;;;;;;;;;;;;;;;;;
2023/03/01 09:36:11;;;;;;;;;42.00;32.50;;;;;;;;5071878;27;44724;-84
2023/03/01 09:38:57;;;;;;;;;37.25;34.75;;;;;;;;5075485;28;45372;-84
2023/03/01 09:42:04;;;;;;;;;45.50;36.50;;;;;;;;5085859;27;45440;-90
2023/03/01 09:54:19;;;;;;;;;41.00;34.75;;;;;;;;5041072;28;45046;-87
2023/03/01 10:03:16;;;;;;;;;39.25;35.00;;;;;;;;5039302;28;45442;-78
2023/03/01 10:05:47;;;;;;;;;44.75;35.50;;;;;;;;5040789;28;45575;-80
2023/03/01 10:08:29;;;;;;;;;35.67;33.67;;;;;;;;5051015;28;45538;-76
2023/03/01 10:10:55;;;;;;;;;42.00;34.25;;;;;;;;5035713;28;45717;-80
2023/03/01 10:13:27;;;;;;;;;38.25;34.25;;;;;;;;5042388;28;45471;-79
2023/03/01 10:15:55;;;;;;;;;37.00;30.00;;;;;;;;5038744;28;46230;-77
2023/03/01 10:18:33;;;;;;;;;42.33;36.00;;;;;;;;5034412;28;45517;-74
2023/03/01 10:20:59;;;;;;;;;45.33;36.33;;;;;;;;5025599;28;46053;-77
2023/03/01 10:23:27;;;;;;;;;33.33;28.00;;;;;;;;5035080;28;45554;-77
2023/03/01 10:26:11;;;;;;;;;35.00;32.50;;;;;;;;5032558;28;46337;-75
2023/03/01 10:28:48;;;;;;;;;43.75;35.75;;;;;;;;5043863;28;45705;-77
2023/03/01 10:31:16;;;;;;;;;33.25;31.75;;;;;;;;5032889;28;45893;-76
2023/03/01 10:33:41;;;;;;;;;33.67;30.33;;;;;;;;5032572;28;45646;-76
2023/03/01 10:36:07;;;;;;;;;34.50;32.00;;;;;;;;5032453;28;47090;-77
2023/03/01 10:38:47;;;;;;;;;49.75;40.75;;;;;;;;5027144;28;45389;-77
2023/03/01 10:41:12;;;;;;;;;36.00;31.25;;;;;;;;5027093;28;45480;-75
2023/03/01 10:43:45;;;;;;;;;50.50;37.50;;;;;;;;5031920;28;45499;-76
2023/03/01 10:46:23;;;;;;;;;31.25;25.50;;;;;;;;5023215;28;46687;-77
2023/03/01 10:49:05;;;;;;;;;38.25;33.25;;;;;;;;5021623;28;45477;-76
2023/03/01 10:51:30;;;;;;;;;37.75;31.25;;;;;;;;5028275;28;45651;-76
2023/03/01 10:53:55;;;;;;;;;36.75;32.75;;;;;;;;5030030;28;46479;-76
2023/03/01 10:56:21;;;;;;;;;34.25;30.50;;;;;;;;5031246;28;45736;-77
2023/03/01 10:59:03;;;;;;;;;38.00;33.25;;;;;;;;5030957;28;45598;-76
2023/03/01 11:01:35;;;;;;;;;36.75;30.75;;;;;;;;5032292;28;45911;-76
2023/03/01 11:04:06;;;;;;;;;43.25;32.25;;;;;;;;5030015;28;45483;-76
2023/03/01 11:06:32;;;;;;;;;36.75;33.00;;;;;;;;5027359;28;46390;-76
2023/03/01 11:09:12;;;;;;;;;36.50;31.50;;;;;;;;5005004;28;47138;-77
2023/03/01 11:11:38;;;;;;;;;41.25;34.00;;;;;;;;5029941;28;45843;-76
2023/03/01 11:14:13;;;;;;;;;31.75;28.50;;;;;;;;5026145;28;45510;-77
2023/03/01 11:16:40;;;;;;;;;39.33;33.67;;;;;;;;5033571;28;45484;-77
2023/03/01 11:19:08;;;;;;;;;27.75;25.25;;;;;;;;5027602;28;45808;-78
2023/03/01 11:21:34;;;;;;;;;36.75;32.75;;;;;;;;5026976;28;45655;-78
2023/03/01 11:24:00;;;;;;;;;41.75;35.25;;;;;;;;5034715;28;45359;-80
2023/03/01 11:26:27;;;;;;;;;40.75;34.00;;;;;;;;5030783;28;47269;-80
2023/03/01 11:28:55;;;;;;;;;38.75;31.75;;;;;;;;5028314;28;45463;-78
2023/03/01 11:31:22;;;;;;;;;36.50;32.00;;;;;;;;5026071;28;45521;-79
2023/03/01 11:33:57;;;;;;;;;44.50;33.75;;;;;;;;5041006;28;45705;-79
2023/03/01 11:36:39;;;;;;;;;40.75;30.25;;;;;;;;5032031;28;46797;-78
2023/03/01 11:39:17;;;;;;;;;44.33;34.33;;;;;;;;5026198;28;47599;-76
2023/03/01 11:41:43;;;;;;;;;40.75;33.50;;;;;;;;5029167;28;45620;-78
2023/03/01 11:44:21;;;;;;;;;33.25;30.00;;;;;;;;5029440;28;45526;-78
2023/03/01 11:46:58;;;;;;;;;31.25;28.75;;;;;;;;5027294;28;46524;-78
2023/03/01 11:49:38;;;;;;;;;45.00;34.25;;;;;;;;5050429;28;45487;-76
2023/03/01 11:52:13;;;;;;;;;42.50;32.75;;;;;;;;5028948;28;45346;-78
2023/03/01 11:54:57;;;;;;;;;42.50;35.50;;;;;;;;5028169;28;45722;-80
2023/03/01 11:57:23;;;;;;;;;29.75;24.75;;;;;;;;5035382;28;46786;-75
2023/03/01 12:00:11;;;;;;;;;44.75;34.50;;;;;;;;5031569;28;45657;-75
2023/03/01 12:03:05;;;;;;;;;32.75;29.00;;;;;;;;5027429;28;45710;-78
2023/03/01 12:05:36;;;;;;;;;43.00;37.00;;;;;;;;5028458;28;46379;-75
2023/03/01 12:08:01;;;;;;;;;38.25;27.75;;;;;;;;5025791;28;45779;-76
2023/03/01 12:10:28;;;;;;;;;45.25;37.00;;;;;;;;5030177;28;45485;-76
2023/03/01 12:13:12;;;;;;;;;40.25;32.75;;;;;;;;5027427;28;45689;-77
2023/03/01 12:15:43;;;;;;;;;41.75;32.25;;;;;;;;5027785;28;45599;-77
2023/03/01 12:18:26;;;;;;;;;42.00;33.75;;;;;;;;5029787;28;46629;-77
2023/03/01 12:20:59;;;;;;;;;35.00;32.50;;;;;;;;5033411;28;45445;-76
2023/03/01 12:23:33;;;;;;;;;43.75;35.00;;;;;;;;5031962;28;45552;-76
2023/03/01 12:26:09;;;;;;;;;40.00;35.50;;;;;;;;5032815;28;45552;-76
2023/03/01 12:28:39;;;;;;;;;36.50;33.75;;;;;;;;5033347;28;45749;-76
2023/03/01 12:31:16;;;;;;;;;42.75;34.50;;;;;;;;5032146;28;46025;-77
2023/03/01 12:33:41;;;;;;;;;45.25;37.00;;;;;;;;5033253;28;45333;-75
2023/03/01 12:36:18;;;;;;;;;39.50;34.75;;;;;;;;5041411;28;45730;-77
2023/03/01 12:39:02;;;;;;;;;43.25;34.50;;;;;;;;5039733;28;45858;-77
2023/03/01 12:41:43;;;;;;;;;52.50;40.75;;;;;;;;5029483;28;46572;-77
2023/03/01 12:44:15;;;;;;;;;36.50;32.75;;;;;;;;5022189;28;45472;-76
2023/03/01 12:46:59;;;;;;;;;42.00;34.75;;;;;;;;5032650;28;45699;-76
2023/03/01 12:49:35;;;;;;;;;31.00;31.00;;;;;;;;5020439;28;45758;-76
2023/03/01 12:52:01;;;;;;;;;37.50;33.25;;;;;;;;5034591;28;45512;-77
2023/03/01 12:54:36;;;;;;;;;41.50;34.00;;;;;;;;5036615;28;45952;-76
2023/03/01 12:57:29;;;;;;;;;42.00;32.00;;;;;;;;5036189;28;45875;-75
2023/03/01 13:00:09;;;;;;;;;32.50;31.25;;;;;;;;5037468;28;45686;-78
2023/03/01 13:02:34;;;;;;;;;41.00;33.25;;;;;;;;5032929;28;45708;-77
2023/03/01 13:05:20;;;;;;;;;49.00;37.25;;;;;;;;5027516;28;45970;-79
2023/03/01 13:08:04;;;;;;;;;30.00;27.25;;;;;;;;5030870;28;45655;-77
2023/03/01 13:10:46;;;;;;;;;39.75;33.00;;;;;;;;5037468;28;45700;-76
2023/03/01 13:13:22;;;;;;;;;41.50;34.50;;;;;;;;5034920;28;45798;-76
2023/03/01 13:15:48;;;;;;;;;37.75;32.50;;;;;;;;5040694;28;45765;-77
2023/03/01 13:18:13;;;;;;;;;34.00;33.00;;;;;;;;5036591;28;45361;-76
2023/03/01 13:20:41;;;;;;;;;39.75;34.25;;;;;;;;5029462;28;46562;-77
2023/03/01 13:23:13;;;;;;;;;42.25;34.00;;;;;;;;5035164;28;45280;-75
2023/03/01 13:26:00;;;;;;;;;42.75;35.25;;;;;;;;5032523;28;45792;-78
2023/03/01 13:28:34;;;;;;;;;43.75;34.75;;;;;;;;5037265;28;45977;-78
2023/03/01 13:31:00;;;;;;;;;47.75;36.50;;;;;;;;5034961;28;46195;-76
2023/03/01 13:33:26;;;;;;;;;44.00;34.75;;;;;;;;5040358;28;45754;-76
2023/03/01 13:35:51;;;;;;;;;38.75;35.50;;;;;;;;5036510;28;45822;-77
2023/03/01 13:38:36;;;;;;;;;42.50;34.25;;;;;;;;5035265;28;45457;-78
2023/03/01 13:41:01;;;;;;;;;46.00;34.25;;;;;;;;5042663;28;45744;-77
2023/03/01 13:43:28;;;;;;;;;38.00;32.00;;;;;;;;5042462;28;45665;-76
2023/03/01 13:45:54;;;;;;;;;38.50;32.50;;;;;;;;5034505;28;45372;-79
2023/03/01 13:48:24;;;;;;;;;50.00;38.00;;;;;;;;5040754;28;45732;-79
2023/03/01 13:51:01;;;;;;;;;36.75;32.75;;;;;;;;5030207;28;45391;-78
2023/03/01 13:53:29;;;;;;;;;39.75;34.75;;;;;;;;5032602;28;45393;-77
2023/03/01 13:56:06;;;;;;;;;37.75;33.00;;;;;;;;5032339;28;45661;-77
2023/03/01 13:58:33;;;;;;;;;44.75;36.50;;;;;;;;5039751;28;45783;-77
2023/03/01 14:01:00;;;;;;;;;44.50;34.00;;;;;;;;5034666;28;45914;-76
2023/03/01 14:03:26;;;;;;;;;41.50;34.75;;;;;;;;5027058;28;45900;-76
2023/03/01 14:06:08;;;;;;;;;45.75;36.00;;;;;;;;5040863;28;45758;-78
2023/03/01 14:08:36;;;;;;;;;38.25;34.25;;;;;;;;5038848;28;46891;-79
2023/03/01 14:11:08;;;;;;;;;44.50;34.25;;;;;;;;5035999;28;46140;-77
2023/03/01 14:13:33;;;;;;;;;38.00;33.00;;;;;;;;5033703;28;45842;-77
2023/03/01 14:16:01;;;;;;;;;38.00;32.00;;;;;;;;5025330;28;45598;-78
2023/03/01 14:18:34;;;;;;;;;43.75;34.25;;;;;;;;5038592;28;45833;-78
2023/03/01 14:20:59;;;;;;;;;42.25;34.50;;;;;;;;5035125;28;45631;-77
2023/03/01 14:23:26;;;;;;;;;43.50;33.25;;;;;;;;5034820;28;45371;-77
2023/03/01 14:25:53;;;;;;;;;43.25;33.50;;;;;;;;5040676;28;45441;-74
2023/03/01 14:28:21;;;;;;;;;45.50;31.75;;;;;;;;5034402;28;45436;-74
2023/03/01 14:30:48;;;;;;;;;49.25;38.00;;;;;;;;5044781;28;45431;-74
2023/03/01 14:33:25;;;;;;;;;38.75;34.00;;;;;;;;5038334;28;45507;-72
2023/03/01 14:35:53;;;;;;;;;47.50;34.50;;;;;;;;5035054;28;45688;-74
2023/03/01 14:38:22;;;;;;;;;41.75;35.00;;;;;;;;5043848;28;45351;-74
2023/03/01 14:40:50;;;;;;;;;42.75;36.50;;;;;;;;5032101;28;47278;-75
2023/03/01 14:43:20;;;;;;;;;42.50;32.50;;;;;;;;5036155;28;46171;-75
2023/03/01 14:45:49;;;;;;;;;38.75;33.50;;;;;;;;5039108;28;45489;-73
2023/03/01 14:48:15;;;;;;;;;39.50;33.25;;;;;;;;5039435;28;46108;-74
2023/03/01 14:50:42;;;;;;;;;43.75;35.75;;;;;;;;5038212;28;46553;-74
2023/03/01 14:53:15;;;;;;;;;40.00;33.75;;;;;;;;5035994;28;45481;-73
2023/03/01 14:55:41;;;;;;;;;47.00;39.00;;;;;;;;5029292;28;45479;-72
2023/03/01 14:58:14;;;;;;;;;42.00;33.75;;;;;;;;5039069;28;45444;-73
2023/03/01 15:00:46;;;;;;;;;48.00;38.00;;;;;;;;5031775;28;45430;-74
2023/03/01 15:03:14;;;;;;;;;39.00;31.25;;;;;;;;5033583;28;45814;-72
2023/03/01 15:05:41;;;;;;;;;47.25;36.25;;;;;;;;5033212;28;45466;-73
2023/03/01 15:08:07;;;;;;;;;34.00;31.50;;;;;;;;5042620;28;47169;-74
2023/03/01 15:10:34;;;;;;;;;39.75;34.00;;;;;;;;5033362;28;45907;-74
2023/03/01 15:13:12;;;;;;;;;51.50;39.00;;;;;;;;5036277;28;45522;-73
2023/03/01 15:15:39;;;;;;;;;41.00;33.50;;;;;;;;5043468;28;45531;-71
2023/03/01 15:18:18;;;;;;;;;34.75;31.25;;;;;;;;5035323;28;45873;-72
2023/03/01 15:20:46;;;;;;;;;30.75;29.25;;;;;;;;5040386;28;45861;-73
2023/03/01 15:23:23;;;;;;;;;33.25;31.25;;;;;;;;5040784;28;45455;-73
2023/03/01 15:25:56;;;;;;;;;39.00;33.00;;;;;;;;5042002;28;45760;-74
2023/03/01 15:28:21;;;;;;;;;37.25;33.25;;;;;;;;5030002;28;45711;-73
2023/03/01 15:30:52;;;;;;;;;43.75;35.00;;;;;;;;5032993;28;45656;-73
2023/03/01 15:33:27;;;;;;;;;37.25;31.75;;;;;;;;5027582;28;45621;-73